createdAt,value
2023-04-29T00:00:43.205Z,124.41
2023-04-29T00:01:40.524Z,125.69
2023-04-29T00:02:40.618Z,124.84
2023-04-29T00:03:40.781Z,122.98
2023-04-29T00:04:40.964Z,127.01
2023-04-29T00:05:40.728Z,127.42
2023-04-29T00:06:40.479Z,129.05
2023-04-29T00:07:40.448Z,129.03
2023-04-29T00:08:40.476Z,128.06
2023-04-29T00:09:40.459Z,126.48
2023-04-29T00:10:40.428Z,125.05
2023-04-29T00:11:40.434Z,125.45
2023-04-29T00:12:40.450Z,124.18
2023-04-29T00:13:40.419Z,127.11
2023-04-29T00:14:40.397Z,124.37
2023-04-29T00:15:40.423Z,130.05
2023-04-29T00:16:40.431Z,126.04
2023-04-29T00:17:40.392Z,126.57
2023-04-29T00:18:40.380Z,127.19
2023-04-29T00:19:40.373Z,126.84
2023-04-29T00:20:40.353Z,125.70
2023-04-29T00:21:40.376Z,125.38
2023-04-29T00:22:40.381Z,126.63
2023-04-29T00:23:40.382Z,128.94
2023-04-29T00:24:40.323Z,125.71
2023-04-29T00:25:40.325Z,128.51
2023-04-29T00:26:40.363Z,124.09
2023-04-29T00:27:40.336Z,124.47
2023-04-29T00:28:40.327Z,126.12
2023-04-29T00:29:40.330Z,124.14
2023-04-29T00:30:40.325Z,125.67
2023-04-29T00:31:40.262Z,124.27
2023-04-29T00:32:40.347Z,125.00
2023-04-29T00:33:40.311Z,125.53
2023-04-29T00:34:40.263Z,125.40
2023-04-29T00:35:40.272Z,125.89
2023-04-29T00:36:40.297Z,124.72
2023-04-29T00:37:40.223Z,124.82
2023-04-29T00:38:40.240Z,123.89
2023-04-29T00:39:40.219Z,126.22
2023-04-29T00:40:40.251Z,125.50
2023-04-29T00:41:40.237Z,124.85
2023-04-29T00:42:40.199Z,126.81
2023-04-29T00:43:40.218Z,128.63
2023-04-29T00:44:40.227Z,124.50
2023-04-29T00:45:40.225Z,127.75
2023-04-29T00:46:40.463Z,128.53
2023-04-29T00:47:40.212Z,124.83
2023-04-29T00:48:40.180Z,127.28
2023-04-29T00:49:40.153Z,126.44
2023-04-29T00:50:40.155Z,124.94
2023-04-29T00:51:40.164Z,129.53
2023-04-29T00:52:40.146Z,126.94
2023-04-29T00:53:40.150Z,128.51
2023-04-29T00:54:40.126Z,126.64
2023-04-29T00:55:40.126Z,124.98
2023-04-29T00:56:40.104Z,127.14
2023-04-29T00:57:40.105Z,130.06
2023-04-29T00:58:40.119Z,127.65
2023-04-29T00:59:40.145Z,127.88
2023-04-29T01:00:40.119Z,126.59
2023-04-29T01:01:40.151Z,127.99
2023-04-29T01:02:40.175Z,127.42
2023-04-29T01:03:40.165Z,122.12
2023-04-29T01:04:40.145Z,128.40
2023-04-29T01:05:40.054Z,125.76
2023-04-29T01:06:40.067Z,126.23
2023-04-29T01:07:40.037Z,127.87
2023-04-29T01:08:40.043Z,125.97
2023-04-29T01:09:40.013Z,128.54
2023-04-29T01:10:40.020Z,127.23
2023-04-29T01:11:40.052Z,127.77
2023-04-29T01:12:40.011Z,131.25
2023-04-29T01:13:40.020Z,127.32
2023-04-29T01:14:40.009Z,124.59
2023-04-29T01:15:40.075Z,126.79
2023-04-29T01:16:40.035Z,128.23
2023-04-29T01:17:40.078Z,128.85
2023-04-29T01:18:40.103Z,128.42
2023-04-29T01:19:40.151Z,123.92
2023-04-29T01:20:40.095Z,127.62
2023-04-29T01:21:40.096Z,129.00
2023-04-29T01:22:40.171Z,124.94
2023-04-29T01:23:40.176Z,130.04
2023-04-29T01:24:40.205Z,127.48
2023-04-29T01:25:40.206Z,127.79
2023-04-29T01:26:40.246Z,128.14
2023-04-29T01:27:40.243Z,126.72
2023-04-29T01:28:40.269Z,128.29
2023-04-29T01:29:40.267Z,125.21
2023-04-29T01:30:40.326Z,127.54
2023-04-29T01:31:40.337Z,127.11
2023-04-29T01:32:40.360Z,128.44
2023-04-29T01:33:40.371Z,128.51
2023-04-29T01:34:40.390Z,125.58
2023-04-29T01:35:40.388Z,126.99
2023-04-29T01:36:40.479Z,127.66
2023-04-29T01:37:40.487Z,127.40
2023-04-29T01:38:40.491Z,126.98
2023-04-29T01:39:40.466Z,128.28
2023-04-29T01:40:40.506Z,130.99
2023-04-29T01:41:40.504Z,127.24
2023-04-29T01:42:40.574Z,127.32
2023-04-29T01:43:40.584Z,127.45
2023-04-29T01:44:40.591Z,129.47
2023-04-29T01:45:40.632Z,125.69
2023-04-29T01:46:40.788Z,130.38
2023-04-29T01:47:40.728Z,128.76
2023-04-29T01:48:40.698Z,129.34
2023-04-29T01:49:40.773Z,128.20
2023-04-29T01:50:40.772Z,128.30
2023-04-29T01:51:40.746Z,129.54
2023-04-29T01:52:40.830Z,130.29
2023-04-29T01:53:40.794Z,127.36
2023-04-29T01:54:43.779Z,128.52
2023-04-29T01:55:40.871Z,128.77
2023-04-29T01:56:40.830Z,126.94
2023-04-29T01:57:40.776Z,127.63
2023-04-29T01:58:40.832Z,128.20
2023-04-29T01:59:40.834Z,126.68
2023-04-29T02:00:40.842Z,129.23
2023-04-29T02:01:40.792Z,124.48
2023-04-29T02:02:40.862Z,131.45
2023-04-29T02:03:40.933Z,130.18
2023-04-29T02:04:40.800Z,126.90
2023-04-29T02:05:40.791Z,127.50
2023-04-29T02:06:40.779Z,127.68
2023-04-29T02:07:40.735Z,125.23
2023-04-29T02:08:40.725Z,128.47
2023-04-29T02:09:40.734Z,127.01
2023-04-29T02:10:40.740Z,127.94
2023-04-29T02:11:40.729Z,131.12
2023-04-29T02:12:40.679Z,126.50
2023-04-29T02:13:40.703Z,128.19
2023-04-29T02:14:40.676Z,128.96
2023-04-29T02:15:40.674Z,128.98
2023-04-29T02:16:40.719Z,129.88
2023-04-29T02:17:40.705Z,133.13
2023-04-29T02:18:40.716Z,131.04
2023-04-29T02:19:40.664Z,129.19
2023-04-29T02:20:40.683Z,130.16
2023-04-29T02:21:40.705Z,129.05
2023-04-29T02:22:40.623Z,127.68
2023-04-29T02:23:40.615Z,127.25
2023-04-29T02:24:40.626Z,127.87
2023-04-29T02:25:40.654Z,130.13
2023-04-29T02:26:40.625Z,130.05
2023-04-29T02:27:40.630Z,126.81
2023-04-29T02:28:40.588Z,127.64
2023-04-29T02:29:40.580Z,128.30
2023-04-29T02:30:40.578Z,129.23
2023-04-29T02:31:40.601Z,127.76
2023-04-29T02:32:40.638Z,132.19
2023-04-29T02:33:40.568Z,127.45
2023-04-29T02:34:40.571Z,126.37
2023-04-29T02:35:40.537Z,130.17
2023-04-29T02:36:40.578Z,124.94
2023-04-29T02:37:40.511Z,131.72
2023-04-29T02:38:40.550Z,129.49
2023-04-29T02:39:40.545Z,125.85
2023-04-29T02:40:40.500Z,130.61
2023-04-29T02:41:40.512Z,126.97
2023-04-29T02:42:40.526Z,130.01
2023-04-29T02:43:40.485Z,129.16
2023-04-29T02:44:40.535Z,131.48
2023-04-29T02:45:40.546Z,125.81
2023-04-29T02:46:40.481Z,127.03
2023-04-29T02:47:40.525Z,125.28
2023-04-29T02:48:40.460Z,128.63
2023-04-29T02:49:40.425Z,131.42
2023-04-29T02:50:40.486Z,129.69
2023-04-29T02:51:40.481Z,129.45
2023-04-29T02:52:40.427Z,130.51
2023-04-29T02:53:40.412Z,127.03
2023-04-29T02:54:40.389Z,128.23
2023-04-29T02:55:40.396Z,130.35
2023-04-29T02:56:40.393Z,126.80
2023-04-29T02:57:40.431Z,126.34
2023-04-29T02:58:40.373Z,127.40
2023-04-29T02:59:40.392Z,127.44
2023-04-29T03:00:40.381Z,127.56
2023-04-29T03:01:40.533Z,130.17
2023-04-29T03:02:40.566Z,129.22
2023-04-29T03:03:40.546Z,127.37
2023-04-29T03:04:40.376Z,128.49
2023-04-29T03:05:40.332Z,133.11
2023-04-29T03:06:40.315Z,129.20
2023-04-29T03:07:40.357Z,131.49
2023-04-29T03:08:40.362Z,129.08
2023-04-29T03:09:40.287Z,129.90
2023-04-29T03:10:41.554Z,129.53
2023-04-29T03:11:40.304Z,131.75
2023-04-29T03:12:40.278Z,129.57
2023-04-29T03:13:40.273Z,129.33
2023-04-29T03:14:40.348Z,130.66
2023-04-29T03:15:40.362Z,132.50
2023-04-29T03:16:40.528Z,130.85
2023-04-29T03:17:40.531Z,129.70
2023-04-29T03:18:40.477Z,133.06
2023-04-29T03:19:40.530Z,131.10
2023-04-29T03:20:40.504Z,130.05
2023-04-29T03:21:40.542Z,130.61
2023-04-29T03:22:40.567Z,129.97
2023-04-29T03:23:40.608Z,130.56
2023-04-29T03:24:40.624Z,131.06
2023-04-29T03:25:40.700Z,131.28
2023-04-29T03:26:40.679Z,130.31
2023-04-29T03:27:40.717Z,129.28
2023-04-29T03:28:40.738Z,128.32
2023-04-29T03:29:40.782Z,132.15
2023-04-29T03:30:40.797Z,130.48
2023-04-29T03:31:40.820Z,129.93
2023-04-29T03:32:40.839Z,130.20
2023-04-29T03:33:40.861Z,131.17
2023-04-29T03:34:40.915Z,129.55
2023-04-29T03:35:40.915Z,130.80
2023-04-29T03:36:40.971Z,131.19
2023-04-29T03:37:40.987Z,131.04
2023-04-29T03:38:41.008Z,129.11
2023-04-29T03:39:41.028Z,127.34
2023-04-29T03:40:41.042Z,127.94
2023-04-29T03:41:41.087Z,130.37
2023-04-29T03:42:41.141Z,128.57
2023-04-29T03:43:41.134Z,131.45
2023-04-29T03:44:41.178Z,128.00
2023-04-29T03:45:41.248Z,128.68
2023-04-29T03:46:41.440Z,131.72
2023-04-29T03:47:41.313Z,128.46
2023-04-29T03:48:41.326Z,129.12
2023-04-29T03:49:41.310Z,127.57
2023-04-29T03:50:41.395Z,128.94
2023-04-29T03:51:41.461Z,129.58
2023-04-29T03:52:41.434Z,133.40
2023-04-29T03:53:41.459Z,132.15
2023-04-29T03:54:41.517Z,126.53
2023-04-29T03:55:41.531Z,129.80
2023-04-29T03:56:41.558Z,132.65
2023-04-29T03:57:42.567Z,128.80
2023-04-29T03:58:41.643Z,128.08
2023-04-29T03:59:41.643Z,131.33
2023-04-29T04:00:41.703Z,129.13
2023-04-29T04:01:41.749Z,128.93
2023-04-29T04:02:41.940Z,129.86
2023-04-29T04:03:41.870Z,129.93
2023-04-29T04:04:41.883Z,130.81
2023-04-29T04:05:41.829Z,131.78
2023-04-29T04:06:41.825Z,131.45
2023-04-29T04:07:41.892Z,129.84
2023-04-29T04:08:41.982Z,130.23
2023-04-29T04:09:41.949Z,132.79
2023-04-29T04:10:41.973Z,130.36
2023-04-29T04:11:41.998Z,130.93
2023-04-29T04:12:44.164Z,128.69
2023-04-29T04:13:42.066Z,133.24
2023-04-29T04:14:42.085Z,129.51
2023-04-29T04:15:42.105Z,128.81
2023-04-29T04:16:42.266Z,130.61
2023-04-29T04:17:42.188Z,129.76
2023-04-29T04:18:42.198Z,131.37
2023-04-29T04:19:42.247Z,130.61
2023-04-29T04:20:42.254Z,130.76
2023-04-29T04:21:42.247Z,129.95
2023-04-29T04:22:42.301Z,128.77
2023-04-29T04:23:42.301Z,131.46
2023-04-29T04:24:42.330Z,129.09
2023-04-29T04:25:42.362Z,127.68
2023-04-29T04:26:42.372Z,132.62
2023-04-29T04:27:42.435Z,130.14
2023-04-29T04:28:42.471Z,129.93
2023-04-29T04:29:42.447Z,131.23
2023-04-29T04:30:42.488Z,129.06
2023-04-29T04:31:43.401Z,130.55
2023-04-29T04:32:42.646Z,129.47
2023-04-29T04:33:42.586Z,130.15
2023-04-29T04:34:42.613Z,129.68
2023-04-29T04:35:42.635Z,129.65
2023-04-29T04:36:42.669Z,131.89
2023-04-29T04:37:42.716Z,130.28
2023-04-29T04:38:42.712Z,132.35
2023-04-29T04:39:42.797Z,131.25
2023-04-29T04:40:42.771Z,127.89
2023-04-29T04:41:42.809Z,132.14
2023-04-29T04:42:42.851Z,128.45
2023-04-29T04:43:42.838Z,130.69
2023-04-29T04:44:42.906Z,131.70
2023-04-29T04:45:42.915Z,131.61
2023-04-29T04:46:42.898Z,129.44
2023-04-29T04:47:43.090Z,133.06
2023-04-29T04:48:43.045Z,128.63
2023-04-29T04:49:43.074Z,131.48
2023-04-29T04:50:43.174Z,131.03
2023-04-29T04:51:43.078Z,130.88
2023-04-29T04:52:43.102Z,131.45
2023-04-29T04:53:43.132Z,132.10
2023-04-29T04:54:43.140Z,132.23
2023-04-29T04:55:43.193Z,130.17
2023-04-29T04:56:43.219Z,130.76
2023-04-29T04:57:43.241Z,128.97
2023-04-29T04:58:43.297Z,133.05
2023-04-29T04:59:43.348Z,128.26
2023-04-29T05:00:43.324Z,132.63
2023-04-29T05:01:43.401Z,130.88
2023-04-29T05:02:43.465Z,131.21
2023-04-29T05:03:43.689Z,127.51
2023-04-29T05:04:43.429Z,128.74
2023-04-29T05:05:43.445Z,130.56
2023-04-29T05:06:43.526Z,131.75
2023-04-29T05:07:43.503Z,132.74
2023-04-29T05:08:43.535Z,132.16
2023-04-29T05:09:43.684Z,129.91
2023-04-29T05:10:44.605Z,132.75
2023-04-29T05:11:43.667Z,132.20
2023-04-29T05:12:43.706Z,133.55
2023-04-29T05:13:43.700Z,129.50
2023-04-29T05:14:43.733Z,130.15
2023-04-29T05:15:43.798Z,128.63
2023-04-29T05:16:43.858Z,131.03
2023-04-29T05:17:43.859Z,133.62
2023-04-29T05:18:43.850Z,130.52
2023-04-29T05:19:43.857Z,132.63
2023-04-29T05:20:43.849Z,129.80
2023-04-29T05:21:43.921Z,132.33
2023-04-29T05:22:43.945Z,130.79
2023-04-29T05:23:43.976Z,128.20
2023-04-29T05:24:43.988Z,130.47
2023-04-29T05:25:44.068Z,131.80
2023-04-29T05:26:44.083Z,127.27
2023-04-29T05:27:44.116Z,128.98
2023-04-29T05:28:44.116Z,131.64
2023-04-29T05:29:44.123Z,128.86
2023-04-29T05:30:44.183Z,129.19
2023-04-29T05:31:44.180Z,130.61
2023-04-29T05:32:44.259Z,131.97
2023-04-29T05:33:44.258Z,132.81
2023-04-29T05:34:44.263Z,129.92
2023-04-29T05:35:44.306Z,130.11
2023-04-29T05:36:44.495Z,131.72
2023-04-29T05:37:44.346Z,132.14
2023-04-29T05:38:44.366Z,128.13
2023-04-29T05:39:44.408Z,132.41
2023-04-29T05:40:44.441Z,131.33
2023-04-29T05:41:44.444Z,131.29
2023-04-29T05:42:44.491Z,129.55
2023-04-29T05:43:44.525Z,128.32
2023-04-29T05:44:44.534Z,132.75
2023-04-29T05:45:44.551Z,131.81
2023-04-29T05:46:44.831Z,132.68
2023-04-29T05:47:44.635Z,131.59
2023-04-29T05:48:44.650Z,126.87
2023-04-29T05:49:44.632Z,132.22
2023-04-29T05:50:44.698Z,129.40
2023-04-29T05:51:44.675Z,130.21
2023-04-29T05:52:44.728Z,129.95
2023-04-29T05:53:44.778Z,130.63
2023-04-29T05:54:44.785Z,132.02
2023-04-29T05:55:44.822Z,131.21
2023-04-29T05:56:44.835Z,129.25
2023-04-29T05:57:44.842Z,133.79
2023-04-29T05:58:44.854Z,131.49
2023-04-29T05:59:44.922Z,128.53
2023-04-29T06:00:44.923Z,131.17
2023-04-29T06:01:44.920Z,129.97
2023-04-29T06:02:57.501Z,129.99
2023-04-29T06:03:46.103Z,130.15
2023-04-29T06:04:45.141Z,130.78
2023-04-29T06:05:45.468Z,130.52
2023-04-29T06:06:44.956Z,130.66
2023-04-29T06:07:44.914Z,126.81
2023-04-29T06:08:44.894Z,129.26
2023-04-29T06:09:44.928Z,131.25
2023-04-29T06:10:44.891Z,129.72
2023-04-29T06:11:44.863Z,129.76
2023-04-29T06:12:44.860Z,127.88
2023-04-29T06:13:44.849Z,129.69
2023-04-29T06:14:44.874Z,129.13
2023-04-29T06:15:44.854Z,126.35
2023-04-29T06:16:44.849Z,129.47
2023-04-29T06:17:44.884Z,125.66
2023-04-29T06:18:44.840Z,130.82
2023-04-29T06:19:44.805Z,125.65
2023-04-29T06:20:44.809Z,128.18
2023-04-29T06:21:44.792Z,126.70
2023-04-29T06:22:44.821Z,126.32
2023-04-29T06:23:44.792Z,130.76
2023-04-29T06:24:44.854Z,130.70
2023-04-29T06:25:44.785Z,131.26
2023-04-29T06:26:44.786Z,129.54
2023-04-29T06:27:44.757Z,128.75
2023-04-29T06:28:44.767Z,130.77
2023-04-29T06:29:44.759Z,128.65
2023-04-29T06:30:44.808Z,129.79
2023-04-29T06:31:44.914Z,128.97
2023-04-29T06:32:44.872Z,127.49
2023-04-29T06:33:44.888Z,131.03
2023-04-29T06:34:44.888Z,128.21
2023-04-29T06:35:44.891Z,130.12
2023-04-29T06:36:44.929Z,128.40
2023-04-29T06:37:44.939Z,128.37
2023-04-29T06:38:44.979Z,127.33
2023-04-29T06:39:44.960Z,128.97
2023-04-29T06:40:44.995Z,124.91
2023-04-29T06:41:44.960Z,128.42
2023-04-29T06:42:45.004Z,127.42
2023-04-29T06:43:46.256Z,127.66
2023-04-29T06:44:44.962Z,127.63
2023-04-29T06:45:44.990Z,127.58
2023-04-29T06:46:44.980Z,129.02
2023-04-29T06:47:44.995Z,128.39
2023-04-29T06:48:44.990Z,126.19
2023-04-29T06:49:44.951Z,127.32
2023-04-29T06:50:44.964Z,125.49
2023-04-29T06:51:44.928Z,127.85
2023-04-29T06:52:44.934Z,124.50
2023-04-29T06:53:44.931Z,129.07
2023-04-29T06:54:44.930Z,125.32
2023-04-29T06:55:44.921Z,126.73
2023-04-29T06:56:44.898Z,125.95
2023-04-29T06:57:44.908Z,124.28
2023-04-29T06:58:44.906Z,126.14
2023-04-29T06:59:44.904Z,127.88
2023-04-29T07:00:44.882Z,126.31
2023-04-29T07:01:45.730Z,126.60
2023-04-29T07:02:44.929Z,126.70
2023-04-29T07:03:45.074Z,126.45
2023-04-29T07:04:44.883Z,127.03
2023-04-29T07:05:44.827Z,127.89
2023-04-29T07:06:44.835Z,128.65
2023-04-29T07:07:44.829Z,129.13
2023-04-29T07:08:44.807Z,126.38
2023-04-29T07:09:44.804Z,127.10
2023-04-29T07:10:44.777Z,127.24
2023-04-29T07:11:44.799Z,127.45
2023-04-29T07:12:44.774Z,128.08
2023-04-29T07:13:44.776Z,132.83
2023-04-29T07:14:44.745Z,127.39
2023-04-29T07:15:44.759Z,130.11
2023-04-29T07:16:44.770Z,130.10
2023-04-29T07:17:44.863Z,132.98
2023-04-29T07:18:44.747Z,130.68
2023-04-29T07:19:44.697Z,126.99
2023-04-29T07:20:44.713Z,130.18
2023-04-29T07:21:44.750Z,126.71
2023-04-29T07:22:44.765Z,129.46
2023-04-29T07:23:44.757Z,123.68
2023-04-29T07:24:44.728Z,127.28
2023-04-29T07:25:44.708Z,126.14
2023-04-29T07:26:44.722Z,123.49
2023-04-29T07:27:44.738Z,125.63
2023-04-29T07:28:44.699Z,125.66
2023-04-29T07:29:44.697Z,125.91
2023-04-29T07:30:44.740Z,127.43
2023-04-29T07:31:44.720Z,128.18
2023-04-29T07:32:44.781Z,127.72
2023-04-29T07:33:44.719Z,126.23
2023-04-29T07:34:44.705Z,124.98
2023-04-29T07:35:44.717Z,127.07
2023-04-29T07:36:44.705Z,127.91
2023-04-29T07:37:44.701Z,126.48
2023-04-29T07:38:44.707Z,124.71
2023-04-29T07:39:44.723Z,122.97
2023-04-29T07:40:44.706Z,125.75
2023-04-29T07:41:44.724Z,126.49
2023-04-29T07:42:44.714Z,126.05
2023-04-29T07:43:44.745Z,124.23
2023-04-29T07:44:44.790Z,121.83
2023-04-29T07:45:44.818Z,124.07
2023-04-29T07:46:44.970Z,126.07
2023-04-29T07:47:44.925Z,124.03
2023-04-29T07:48:44.842Z,125.05
2023-04-29T07:49:44.895Z,125.22
2023-04-29T07:50:44.845Z,120.95
2023-04-29T07:51:44.884Z,124.87
2023-04-29T07:52:44.851Z,124.13
2023-04-29T07:53:44.906Z,126.24
2023-04-29T07:54:44.905Z,121.83
2023-04-29T07:55:44.895Z,122.93
2023-04-29T07:56:44.888Z,121.70
2023-04-29T07:57:44.889Z,122.92
2023-04-29T07:58:44.909Z,122.31
2023-04-29T07:59:44.915Z,125.55
2023-04-29T08:00:44.919Z,122.45
2023-04-29T08:01:44.958Z,121.30
2023-04-29T08:02:45.167Z,124.64
2023-04-29T08:03:45.261Z,122.25
2023-04-29T08:04:45.338Z,122.99
2023-04-29T08:05:45.112Z,121.03
2023-04-29T08:06:45.052Z,120.95
2023-04-29T08:07:45.061Z,122.60
2023-04-29T08:08:45.075Z,124.44
2023-04-29T08:09:45.148Z,125.85
2023-04-29T08:10:45.141Z,120.88
2023-04-29T08:11:45.263Z,122.80
2023-04-29T08:12:45.269Z,124.54
2023-04-29T08:13:45.266Z,119.41
2023-04-29T08:14:45.265Z,126.08
2023-04-29T08:15:45.294Z,127.27
2023-04-29T08:16:45.353Z,128.27
2023-04-29T08:17:45.363Z,124.64
2023-04-29T08:18:45.357Z,125.21
2023-04-29T08:19:45.395Z,127.07
2023-04-29T08:20:45.394Z,125.66
2023-04-29T08:21:45.446Z,118.96
2023-04-29T08:22:45.418Z,121.89
2023-04-29T08:23:45.454Z,124.63
2023-04-29T08:24:45.482Z,123.35
2023-04-29T08:25:45.503Z,121.14
2023-04-29T08:26:45.539Z,122.60
2023-04-29T08:27:45.598Z,123.02
2023-04-29T08:28:45.585Z,119.42
2023-04-29T08:29:45.668Z,122.06
2023-04-29T08:30:45.662Z,122.35
2023-04-29T08:31:45.765Z,123.47
2023-04-29T08:32:45.789Z,123.11
2023-04-29T08:33:45.785Z,125.16
2023-04-29T08:34:45.867Z,122.49
2023-04-29T08:35:45.882Z,126.98
2023-04-29T08:36:45.935Z,124.39
2023-04-29T08:37:45.921Z,121.73
2023-04-29T08:38:45.983Z,125.56
2023-04-29T08:39:46.044Z,125.81
2023-04-29T08:40:46.076Z,124.17
2023-04-29T08:41:46.077Z,125.62
2023-04-29T08:42:48.753Z,127.73
2023-04-29T08:43:46.128Z,125.43
2023-04-29T08:44:46.101Z,125.48
2023-04-29T08:45:46.158Z,125.40
2023-04-29T08:46:46.123Z,128.19
2023-04-29T08:47:46.170Z,123.68
2023-04-29T08:48:46.195Z,127.78
2023-04-29T08:49:46.101Z,126.28
2023-04-29T08:50:46.131Z,129.09
2023-04-29T08:51:46.069Z,125.35
2023-04-29T08:52:46.048Z,127.54
2023-04-29T08:53:46.100Z,125.46
2023-04-29T08:54:46.078Z,128.85
2023-04-29T08:55:46.032Z,130.80
2023-04-29T08:56:46.053Z,124.69
2023-04-29T08:57:46.051Z,126.02
2023-04-29T08:58:46.028Z,124.06
2023-04-29T08:59:46.051Z,125.36
2023-04-29T09:00:46.037Z,127.41
2023-04-29T09:01:46.043Z,124.43
2023-04-29T09:02:46.047Z,126.99
2023-04-29T09:03:46.186Z,125.59
2023-04-29T09:04:46.030Z,125.71
2023-04-29T09:05:45.979Z,127.42
2023-04-29T09:06:45.991Z,123.10
2023-04-29T09:07:45.958Z,121.49
2023-04-29T09:08:45.986Z,124.62
2023-04-29T09:09:45.967Z,124.21
2023-04-29T09:10:45.936Z,123.20
2023-04-29T09:11:45.964Z,121.97
2023-04-29T09:12:45.950Z,123.09
2023-04-29T09:13:45.960Z,122.18
2023-04-29T09:14:45.918Z,122.29
2023-04-29T09:15:45.939Z,123.57
2023-04-29T09:16:45.964Z,121.92
2023-04-29T09:17:46.069Z,123.60
2023-04-29T09:18:45.892Z,122.62
2023-04-29T09:19:45.929Z,120.93
2023-04-29T09:20:45.879Z,119.57
2023-04-29T09:21:45.907Z,122.44
2023-04-29T09:22:45.871Z,120.17
2023-04-29T09:23:45.935Z,117.25
2023-04-29T09:24:46.038Z,117.78
2023-04-29T09:25:46.062Z,120.97
2023-04-29T09:26:46.113Z,121.76
2023-04-29T09:27:46.174Z,117.18
2023-04-29T09:28:46.271Z,121.94
2023-04-29T09:29:46.304Z,119.47
2023-04-29T09:30:46.390Z,118.98
2023-04-29T09:31:46.465Z,120.91
2023-04-29T09:32:46.499Z,118.03
2023-04-29T09:33:46.511Z,118.62
2023-04-29T09:34:46.603Z,122.10
2023-04-29T09:35:46.615Z,119.88
2023-04-29T09:36:46.751Z,121.61
2023-04-29T09:37:46.736Z,118.46
2023-04-29T09:38:46.804Z,120.27
2023-04-29T09:39:46.850Z,117.40
2023-04-29T09:40:59.074Z,116.87
2023-04-29T09:41:47.901Z,117.23
2023-04-29T09:42:46.980Z,117.57
2023-04-29T09:45:18.125Z,25.00
2023-04-29T09:46:06.048Z,25.00
2023-04-29T09:47:05.915Z,25.00
2023-04-29T09:48:05.971Z,25.00
2023-04-29T09:49:05.916Z,25.00
2023-04-29T09:50:05.883Z,25.00
2023-04-29T09:51:05.893Z,26.57
2023-04-29T09:53:24.878Z,25.00
2023-04-29T09:54:24.884Z,25.00
2023-04-29T09:55:24.847Z,25.00
2023-04-29T10:00:34.422Z,25.00
2023-04-29T10:01:34.444Z,25.00
2023-04-29T10:02:34.506Z,25.00
2023-04-29T10:03:34.578Z,25.00
2023-04-29T10:04:34.590Z,25.00
2023-04-29T10:05:34.551Z,25.00
2023-04-29T10:06:34.576Z,23.31
2023-04-29T10:07:34.609Z,25.00
2023-04-29T10:08:34.659Z,26.72
2023-04-29T10:09:34.733Z,24.44
2023-04-29T10:10:34.797Z,27.50
2023-04-29T10:11:34.799Z,28.50
2023-04-29T10:12:34.837Z,24.37
2023-04-29T10:13:34.933Z,25.00
2023-04-29T10:14:34.959Z,26.74
2023-04-29T10:15:35.088Z,28.33
2023-04-29T10:16:35.128Z,26.72
2023-04-29T10:17:35.167Z,28.73
2023-04-29T10:18:35.178Z,28.28
2023-04-29T10:19:35.239Z,26.03
2023-04-29T10:20:35.237Z,27.09
2023-04-29T10:21:35.279Z,26.50
2023-04-29T10:22:35.313Z,26.82
2023-04-29T10:23:35.390Z,25.00
2023-04-29T10:24:35.400Z,25.63
2023-04-29T10:25:35.514Z,25.60
2023-04-29T10:26:35.474Z,30.53
2023-04-29T10:27:35.583Z,27.65
2023-04-29T10:28:35.618Z,28.05
2023-04-29T10:29:35.599Z,25.00
2023-04-29T10:30:35.664Z,27.53
2023-04-29T10:31:35.770Z,29.81
2023-04-29T10:32:49.699Z,27.63
2023-04-29T10:33:36.749Z,27.85
2023-04-29T10:34:35.716Z,27.95
2023-04-29T10:35:35.712Z,26.80
2023-04-29T10:36:35.729Z,26.72
2023-04-29T10:37:35.688Z,29.62
2023-04-29T10:38:35.714Z,30.70
2023-04-29T10:39:35.677Z,26.08
2023-04-29T10:40:35.684Z,29.38
2023-04-29T10:41:35.732Z,28.21
2023-04-29T10:42:35.696Z,27.24
2023-04-29T10:43:35.695Z,27.25
2023-04-29T10:44:35.676Z,30.49
2023-04-29T10:45:35.665Z,29.29
2023-04-29T10:46:35.725Z,29.11
2023-04-29T10:47:35.707Z,28.73
2023-04-29T10:48:35.663Z,26.00
2023-04-29T10:49:35.716Z,30.11
2023-04-29T10:50:35.725Z,29.68
2023-04-29T10:51:35.790Z,26.10
2023-04-29T10:52:35.810Z,25.43
2023-04-29T10:53:35.834Z,28.02
2023-04-29T10:54:35.912Z,27.28
2023-04-29T10:55:35.917Z,27.88
2023-04-29T10:56:35.946Z,29.25
2023-04-29T10:57:35.965Z,27.68
2023-04-29T10:58:36.007Z,30.83
2023-04-29T10:59:36.043Z,27.81
2023-04-29T11:00:36.055Z,28.94
2023-04-29T11:01:36.174Z,30.65
2023-04-29T11:02:36.236Z,31.90
2023-04-29T11:03:36.329Z,29.48
2023-04-29T11:04:36.220Z,29.77
2023-04-29T11:05:36.197Z,27.44
2023-04-29T11:06:36.238Z,29.35
2023-04-29T11:07:36.320Z,29.69
2023-04-29T11:08:36.323Z,29.86
2023-04-29T11:09:36.343Z,29.44
2023-04-29T11:10:36.379Z,31.37
2023-04-29T11:11:36.386Z,30.80
2023-04-29T11:12:36.397Z,31.56
2023-04-29T11:13:36.410Z,29.66
2023-04-29T11:14:36.640Z,30.46
2023-04-29T11:15:36.575Z,31.60
2023-04-29T11:16:36.601Z,28.40
2023-04-29T11:17:36.648Z,29.75
2023-04-29T11:18:36.626Z,29.92
2023-04-29T11:19:36.709Z,31.87
2023-04-29T11:20:36.677Z,31.33
2023-04-29T11:21:36.735Z,30.36
2023-04-29T11:22:36.718Z,30.23
2023-04-29T11:23:36.809Z,29.79
2023-04-29T11:24:36.797Z,33.40
2023-04-29T11:25:38.811Z,30.52
2023-04-29T11:26:36.780Z,34.55
2023-04-29T11:27:36.761Z,33.29
2023-04-29T11:28:36.770Z,34.77
2023-04-29T11:29:36.766Z,30.15
2023-04-29T11:30:36.781Z,32.06
2023-04-29T11:31:36.902Z,29.06
2023-04-29T11:32:36.906Z,30.80
2023-04-29T11:33:36.772Z,32.74
2023-04-29T11:34:36.708Z,30.17
2023-04-29T11:35:36.761Z,31.41
2023-04-29T11:36:36.684Z,31.50
2023-04-29T11:37:36.728Z,30.84
2023-04-29T11:38:36.735Z,30.43
2023-04-29T11:39:36.695Z,29.81
2023-04-29T11:40:36.665Z,30.43
2023-04-29T11:41:36.691Z,26.14
2023-04-29T11:42:36.700Z,31.10
2023-04-29T11:43:36.679Z,31.98
2023-04-29T11:44:36.676Z,32.02
2023-04-29T11:45:36.688Z,30.74
2023-04-29T11:46:36.698Z,28.57
2023-04-29T11:47:36.724Z,30.63
2023-04-29T11:48:36.632Z,32.71
2023-04-29T11:49:36.636Z,29.21
2023-04-29T11:50:36.668Z,27.14
2023-04-29T11:51:36.611Z,30.95
2023-04-29T11:52:36.582Z,29.43
2023-04-29T11:53:36.587Z,29.91
2023-04-29T11:54:36.572Z,31.39
2023-04-29T11:55:36.598Z,32.63
2023-04-29T11:56:36.591Z,30.36
2023-04-29T11:57:36.542Z,31.11
2023-04-29T11:58:36.534Z,32.35
2023-04-29T11:59:36.571Z,31.00
2023-04-29T12:00:36.574Z,30.74
2023-04-29T12:01:36.549Z,30.45
2023-04-29T12:02:36.636Z,31.77
2023-04-29T12:03:36.882Z,31.65
2023-04-29T12:04:36.602Z,28.56
2023-04-29T12:05:36.540Z,29.91
2023-04-29T12:06:36.513Z,29.25
2023-04-29T12:07:36.517Z,29.29
2023-04-29T12:08:36.516Z,30.93
2023-04-29T12:09:36.467Z,29.18
2023-04-29T12:10:36.495Z,33.22
2023-04-29T12:11:36.470Z,32.29
2023-04-29T12:12:36.542Z,31.98
2023-04-29T12:13:36.477Z,28.29
2023-04-29T12:14:36.484Z,30.09
2023-04-29T12:15:38.362Z,30.82
2023-04-29T12:16:36.559Z,30.95
2023-04-29T12:17:36.464Z,31.14
2023-04-29T12:18:36.427Z,31.75
2023-04-29T12:19:36.410Z,31.27
2023-04-29T12:20:36.419Z,30.68
2023-04-29T12:21:36.403Z,30.52
2023-04-29T12:22:36.407Z,30.57
2023-04-29T12:23:36.412Z,31.93
2023-04-29T12:24:36.430Z,32.36
2023-04-29T12:25:36.371Z,31.26
2023-04-29T12:26:36.408Z,31.65
2023-04-29T12:27:36.397Z,33.29
2023-04-29T12:28:36.323Z,32.17
2023-04-29T12:29:36.336Z,30.27
2023-04-29T12:30:36.358Z,31.09
2023-04-29T12:31:36.440Z,30.80
2023-04-29T12:32:36.347Z,28.26
2023-04-29T12:33:36.332Z,29.00
2023-04-29T12:34:36.301Z,32.08
2023-04-29T12:35:36.313Z,32.89
2023-04-29T12:36:36.307Z,30.24
2023-04-29T12:37:36.316Z,30.29
2023-04-29T12:38:36.272Z,29.42
2023-04-29T12:39:36.246Z,30.14
2023-04-29T12:40:36.277Z,29.14